Time;durP1;ratioP1;P1;durP2;ratioP2;P2;SDS_P1;SDS_P2;PMS_P1;PMS_P2;Temp;Humidity;BMP_temperature;BMP_pressure;BME280_temperature;BME280_humidity;BME280_pressure;Samples;Min_cycle;Max_cycle;Signal;HPM_P1;HPM_P2
2021/10/03 00:00:36;;;;;;;4.20;3.80;;;;;;;;;;4974801;28;20446;-78
2021/10/03 00:03:04;;;;;;;5.53;4.00;;;;;;;;;;4974651;28;20805;-78
2021/10/03 00:05:31;;;;;;;4.07;3.77;;;;;;;;;;4974656;28;20442;-77
2021/10/03 00:07:59;;;;;;;4.57;3.50;;;;;;;;;;4975348;28;20478;-78
2021/10/03 00:10:28;;;;;;;4.20;3.80;;;;;;;;;;4974436;28;20477;-77
2021/10/03 00:12:55;;;;;;;3.57;3.27;;;;;;;;;;4974222;28;20459;-76
2021/10/03 00:15:23;;;;;;;4.20;3.70;;;;;;;;;;4974199;28;20458;-77
2021/10/03 00:17:51;;;;;;;5.70;4.10;;;;;;;;;;4974909;28;20482;-76
2021/10/03 00:20:19;;;;;;;4.47;4.07;;;;;;;;;;4974066;28;20495;-76
2021/10/03 00:22:46;;;;;;;4.43;4.03;;;;;;;;;;4974603;28;20439;-77
2021/10/03 00:25:15;;;;;;;3.80;3.47;;;;;;;;;;4974147;28;20449;-77
2021/10/03 00:27:42;;;;;;;4.03;3.70;;;;;;;;;;4974390;28;20453;-77
2021/10/03 00:30:10;;;;;;;7.73;3.83;;;;;;;;;;4974297;28;20578;-77
2021/10/03 00:32:37;;;;;;;5.50;4.33;;;;;;;;;;4977560;28;20455;-77
2021/10/03 00:35:05;;;;;;;4.27;3.93;;;;;;;;;;4978149;28;20437;-78
2021/10/03 00:37:32;;;;;;;4.03;3.63;;;;;;;;;;4978074;28;20438;-77
2021/10/03 00:39:59;;;;;;;4.80;4.27;;;;;;;;;;4978576;28;20443;-78
2021/10/03 00:42:28;;;;;;;4.80;3.70;;;;;;;;;;4978021;28;20456;-77
2021/10/03 00:44:55;;;;;;;3.90;3.60;;;;;;;;;;4977762;28;20448;-77
2021/10/03 00:47:23;;;;;;;4.50;3.37;;;;;;;;;;4977752;28;20444;-77
2021/10/03 00:49:50;;;;;;;3.77;3.40;;;;;;;;;;4977850;28;20488;-79
2021/10/03 00:52:17;;;;;;;4.33;3.93;;;;;;;;;;4978583;28;20802;-77
2021/10/03 00:54:45;;;;;;;4.50;4.10;;;;;;;;;;4977639;28;20467;-78
2021/10/03 00:57:12;;;;;;;6.20;3.97;;;;;;;;;;4977529;28;20446;-78
2021/10/03 00:59:41;;;;;;;4.03;3.73;;;;;;;;;;4977194;28;20448;-77
2021/10/03 01:02:09;;;;;;;3.90;3.60;;;;;;;;;;4978224;28;20457;-77
2021/10/03 01:04:36;;;;;;;5.37;4.00;;;;;;;;;;4977128;28;20444;-78
2021/10/03 01:07:04;;;;;;;4.13;3.73;;;;;;;;;;4977408;28;20456;-78
2021/10/03 01:09:31;;;;;;;4.50;3.60;;;;;;;;;;4978170;28;20452;-77
2021/10/03 01:11:58;;;;;;;4.97;4.20;;;;;;;;;;4977177;28;20484;-77
2021/10/03 01:14:26;;;;;;;7.07;4.17;;;;;;;;;;4977135;28;20452;-77
2021/10/03 01:16:54;;;;;;;4.30;3.90;;;;;;;;;;4977966;28;20450;-77
2021/10/03 01:19:21;;;;;;;3.90;3.60;;;;;;;;;;4977146;28;20544;-77
2021/10/03 01:21:50;;;;;;;4.73;3.40;;;;;;;;;;4977092;28;20490;-77
2021/10/03 01:24:17;;;;;;;4.80;4.30;;;;;;;;;;4976705;28;20445;-78
2021/10/03 01:26:44;;;;;;;4.47;4.07;;;;;;;;;;4976978;28;20452;-77
2021/10/03 01:29:12;;;;;;;4.30;3.90;;;;;;;;;;4976711;28;20463;-77
2021/10/03 01:31:39;;;;;;;4.70;4.23;;;;;;;;;;4976882;28;20481;-79
2021/10/03 01:34:06;;;;;;;5.80;4.13;;;;;;;;;;4976849;28;20447;-78
2021/10/03 01:36:34;;;;;;;6.77;4.13;;;;;;;;;;4976506;28;20464;-79
2021/10/03 01:39:02;;;;;;;3.80;3.50;;;;;;;;;;4976836;28;20442;-78
2021/10/03 01:41:30;;;;;;;5.03;4.63;;;;;;;;;;4976403;28;20462;-79
2021/10/03 01:43:57;;;;;;;4.70;4.17;;;;;;;;;;4975852;28;20530;-78
2021/10/03 01:46:24;;;;;;;5.00;4.40;;;;;;;;;;4976694;28;20448;-78
2021/10/03 01:48:51;;;;;;;4.53;3.83;;;;;;;;;;4976289;28;20445;-77
2021/10/03 01:51:19;;;;;;;4.40;4.00;;;;;;;;;;4976729;28;20483;-77
2021/10/03 01:53:47;;;;;;;4.50;4.10;;;;;;;;;;4976516;28;20475;-79
2021/10/03 01:56:16;;;;;;;7.47;5.40;;;;;;;;;;4976285;28;20460;-78
2021/10/03 01:58:45;;;;;;;4.73;4.23;;;;;;;;;;4976512;28;20454;-77
2021/10/03 02:01:14;;;;;;;3.60;3.23;;;;;;;;;;4976133;28;20445;-77
2021/10/03 02:03:41;;;;;;;3.90;3.50;;;;;;;;;;4976484;28;20450;-77
2021/10/03 02:06:09;;;;;;;4.43;4.00;;;;;;;;;;4976499;28;20448;-78
2021/10/03 02:08:36;;;;;;;3.87;3.57;;;;;;;;;;4976493;28;20449;-78
2021/10/03 02:11:03;;;;;;;4.20;3.80;;;;;;;;;;4976197;28;20488;-77
2021/10/03 02:13:32;;;;;;;5.97;3.90;;;;;;;;;;4975911;28;20969;-78
2021/10/03 02:16:01;;;;;;;4.13;3.73;;;;;;;;;;4975899;28;20445;-77
2021/10/03 02:18:33;;;;;;;3.83;3.47;;;;;;;;;;4975737;28;20453;-77
2021/10/03 02:21:01;;;;;;;3.33;3.03;;;;;;;;;;4976539;28;20491;-78
2021/10/03 02:23:28;;;;;;;4.10;3.80;;;;;;;;;;4976610;28;20786;-77
2021/10/03 02:25:55;;;;;;;3.83;3.40;;;;;;;;;;4975739;28;20454;-77
2021/10/03 02:28:23;;;;;;;4.47;3.73;;;;;;;;;;4975721;28;20454;-77
2021/10/03 02:30:53;;;;;;;7.47;3.43;;;;;;;;;;4976177;28;20485;-77
2021/10/03 02:33:21;;;;;;;5.03;3.83;;;;;;;;;;4976286;28;20459;-77
2021/10/03 02:35:48;;;;;;;4.73;4.33;;;;;;;;;;4975772;28;20848;-77
2021/10/03 02:38:16;;;;;;;4.13;3.27;;;;;;;;;;4975798;28;20445;-78
2021/10/03 02:40:44;;;;;;;5.10;3.70;;;;;;;;;;4975767;28;20455;-79
2021/10/03 02:43:12;;;;;;;4.50;4.10;;;;;;;;;;4975712;28;20445;-80
2021/10/03 02:45:40;;;;;;;3.33;3.03;;;;;;;;;;4975340;28;20934;-80
2021/10/03 02:48:09;;;;;;;4.43;3.40;;;;;;;;;;4975556;28;20475;-79
2021/10/03 02:50:36;;;;;;;3.70;3.13;;;;;;;;;;4975714;28;20490;-80
2021/10/03 02:53:05;;;;;;;3.63;3.27;;;;;;;;;;4975618;28;20474;-78
2021/10/03 02:55:33;;;;;;;4.63;3.70;;;;;;;;;;4975378;28;20529;-79
2021/10/03 02:58:00;;;;;;;3.00;2.77;;;;;;;;;;4975726;28;20455;-78
2021/10/03 03:00:27;;;;;;;2.80;2.60;;;;;;;;;;4975706;28;20445;-78
2021/10/03 03:02:54;;;;;;;6.13;3.00;;;;;;;;;;4975659;28;20441;-79
2021/10/03 03:05:23;;;;;;;3.50;3.03;;;;;;;;;;4975393;28;20446;-79
2021/10/03 03:07:50;;;;;;;3.87;3.47;;;;;;;;;;4975297;28;20452;-79
2021/10/03 03:10:17;;;;;;;3.23;2.93;;;;;;;;;;4975181;28;20452;-78
2021/10/03 03:12:45;;;;;;;4.70;3.13;;;;;;;;;;4975259;28;20804;-77
2021/10/03 03:15:12;;;;;;;3.43;2.70;;;;;;;;;;4975653;28;20449;-78
2021/10/03 03:17:39;;;;;;;5.13;3.47;;;;;;;;;;4975478;28;20448;-77
2021/10/03 03:20:07;;;;;;;3.67;2.97;;;;;;;;;;4974937;28;20453;-78
2021/10/03 03:22:36;;;;;;;4.10;2.63;;;;;;;;;;4975256;28;20433;-78
2021/10/03 03:25:04;;;;;;;2.83;2.63;;;;;;;;;;4974679;28;20464;-78
2021/10/03 03:27:31;;;;;;;3.40;3.10;;;;;;;;;;4974956;28;20444;-78
2021/10/03 03:29:58;;;;;;;3.50;3.20;;;;;;;;;;4975152;28;20450;-78
2021/10/03 03:32:26;;;;;;;4.93;3.67;;;;;;;;;;4974725;28;20485;-78
2021/10/03 03:34:53;;;;;;;3.30;3.00;;;;;;;;;;4974377;28;20459;-78
2021/10/03 03:37:20;;;;;;;3.60;2.40;;;;;;;;;;4974887;28;20870;-79
2021/10/03 03:39:48;;;;;;;3.60;2.90;;;;;;;;;;4974992;28;20445;-78
2021/10/03 03:42:16;;;;;;;5.93;3.97;;;;;;;;;;4974354;28;20456;-78
2021/10/03 03:44:43;;;;;;;7.43;3.43;;;;;;;;;;4974475;28;20455;-78
2021/10/03 03:47:10;;;;;;;3.50;2.87;;;;;;;;;;4975043;28;20459;-78
2021/10/03 03:49:38;;;;;;;3.23;2.80;;;;;;;;;;4974507;28;20453;-78
2021/10/03 03:52:06;;;;;;;3.07;2.83;;;;;;;;;;4975263;28;20494;-79
2021/10/03 03:54:33;;;;;;;3.03;2.83;;;;;;;;;;4974423;28;20460;-78
2021/10/03 03:57:01;;;;;;;3.40;3.10;;;;;;;;;;4974433;28;20437;-79
2021/10/03 03:59:28;;;;;;;4.60;3.60;;;;;;;;;;4974109;28;20454;-77
2021/10/03 04:01:56;;;;;;;3.20;2.90;;;;;;;;;;4974233;28;20460;-77
2021/10/03 04:04:23;;;;;;;5.47;3.37;;;;;;;;;;4974054;28;20441;-77
2021/10/03 04:06:50;;;;;;;8.60;3.57;;;;;;;;;;4976798;28;20442;-74
2021/10/03 04:09:17;;;;;;;4.93;3.60;;;;;;;;;;4978114;28;20444;-78
2021/10/03 04:11:44;;;;;;;3.67;3.37;;;;;;;;;;4978732;28;20477;-77
2021/10/03 04:14:13;;;;;;;3.57;3.00;;;;;;;;;;4978687;28;20792;-77
2021/10/03 04:16:40;;;;;;;8.27;3.37;;;;;;;;;;4978336;28;20445;-78
2021/10/03 04:19:07;;;;;;;3.63;3.33;;;;;;;;;;4978311;28;20449;-78
2021/10/03 04:21:34;;;;;;;3.70;3.40;;;;;;;;;;4978352;28;21008;-78
2021/10/03 04:24:02;;;;;;;4.20;3.87;;;;;;;;;;4978217;28;20458;-78
2021/10/03 04:26:29;;;;;;;3.90;2.97;;;;;;;;;;4977834;28;20442;-79
2021/10/03 04:28:56;;;;;;;3.70;3.40;;;;;;;;;;4978354;28;20515;-82
2021/10/03 04:31:25;;;;;;;4.90;4.43;;;;;;;;;;4996574;28;20500;-80
2021/10/03 04:33:52;;;;;;;3.83;3.53;;;;;;;;;;4996186;28;20447;-82
2021/10/03 04:36:19;;;;;;;4.90;3.83;;;;;;;;;;4997048;28;20451;-84
2021/10/03 04:38:46;;;;;;;4.97;4.07;;;;;;;;;;4997173;28;20928;-85
2021/10/03 04:41:13;;;;;;;4.40;4.00;;;;;;;;;;4996965;28;20470;-84
2021/10/03 04:43:41;;;;;;;4.30;3.83;;;;;;;;;;4997056;28;20528;-86
2021/10/03 04:46:08;;;;;;;8.13;4.30;;;;;;;;;;4996929;28;20449;-83
2021/10/03 04:48:36;;;;;;;4.63;4.17;;;;;;;;;;4996165;28;20458;-85
2021/10/03 04:51:04;;;;;;;4.63;4.00;;;;;;;;;;4996899;28;20449;-84
2021/10/03 04:53:31;;;;;;;7.80;4.43;;;;;;;;;;4997367;28;20459;-86
2021/10/03 04:55:58;;;;;;;5.53;4.30;;;;;;;;;;4998551;28;20448;-86
2021/10/03 04:58:26;;;;;;;6.00;4.30;;;;;;;;;;4997628;28;20454;-81
2021/10/03 05:00:53;;;;;;;4.60;4.20;;;;;;;;;;4997927;28;20448;-77
2021/10/03 05:03:20;;;;;;;5.90;5.00;;;;;;;;;;4995972;28;20930;-82
2021/10/03 05:05:49;;;;;;;6.50;4.70;;;;;;;;;;4995312;28;20449;-82
2021/10/03 05:08:18;;;;;;;5.97;5.43;;;;;;;;;;4995900;28;20452;-82
2021/10/03 05:10:45;;;;;;;5.50;4.60;;;;;;;;;;4995431;28;20498;-85
2021/10/03 05:13:12;;;;;;;5.97;5.10;;;;;;;;;;4995858;28;20527;-85
2021/10/03 05:15:42;;;;;;;5.50;5.00;;;;;;;;;;4996304;28;20956;-84
2021/10/03 05:18:09;;;;;;;5.70;5.00;;;;;;;;;;4994974;28;20486;-83
2021/10/03 05:20:37;;;;;;;6.90;5.07;;;;;;;;;;4997782;28;20949;-83
2021/10/03 05:23:05;;;;;;;5.37;4.83;;;;;;;;;;4998717;28;20881;-85
2021/10/03 05:25:33;;;;;;;6.73;5.60;;;;;;;;;;4997699;28;20442;-87
2021/10/03 05:28:00;;;;;;;5.77;5.10;;;;;;;;;;4996084;28;20934;-85
2021/10/03 05:30:27;;;;;;;6.80;5.33;;;;;;;;;;4996080;28;20445;-85
2021/10/03 05:32:55;;;;;;;5.53;4.90;;;;;;;;;;4995772;28;20490;-84
2021/10/03 05:35:22;;;;;;;6.63;5.30;;;;;;;;;;4995968;28;20842;-85
2021/10/03 05:37:50;;;;;;;6.00;5.17;;;;;;;;;;4996046;28;20525;-83
2021/10/03 05:40:19;;;;;;;6.47;5.63;;;;;;;;;;4996058;28;20479;-84
2021/10/03 05:42:46;;;;;;;5.80;5.20;;;;;;;;;;4996012;28;20449;-85
2021/10/03 05:45:13;;;;;;;6.27;5.47;;;;;;;;;;4996028;28;20798;-85
2021/10/03 05:47:40;;;;;;;6.63;5.83;;;;;;;;;;4995968;28;20445;-85
2021/10/03 05:50:09;;;;;;;7.80;5.87;;;;;;;;;;4995780;28;20464;-87
2021/10/03 05:52:37;;;;;;;5.90;5.40;;;;;;;;;;4995828;28;20569;-83
2021/10/03 05:55:04;;;;;;;9.10;5.50;;;;;;;;;;4995669;28;20456;-83
2021/10/03 05:57:32;;;;;;;7.63;5.90;;;;;;;;;;4995852;28;20443;-87
2021/10/03 06:00:00;;;;;;;7.50;6.27;;;;;;;;;;4996182;28;20873;-84
2021/10/03 06:02:27;;;;;;;7.17;6.50;;;;;;;;;;4995841;28;20456;-85
2021/10/03 06:04:54;;;;;;;7.30;6.60;;;;;;;;;;4996939;28;20536;-87
2021/10/03 06:07:21;;;;;;;12.67;7.10;;;;;;;;;;4997125;28;20441;-87
2021/10/03 06:09:48;;;;;;;8.07;7.33;;;;;;;;;;4995607;28;20451;-85
2021/10/03 06:12:16;;;;;;;10.30;5.90;;;;;;;;;;4995597;28;20503;-79
2021/10/03 06:14:45;;;;;;;8.23;7.40;;;;;;;;;;4994812;28;20531;-84
2021/10/03 06:17:12;;;;;;;9.90;7.57;;;;;;;;;;4994973;28;20464;-88
2021/10/03 06:19:39;;;;;;;9.33;7.03;;;;;;;;;;4995515;28;20543;-84
2021/10/03 06:22:06;;;;;;;8.60;7.60;;;;;;;;;;4995671;28;20487;-84
2021/10/03 06:24:33;;;;;;;12.70;7.63;;;;;;;;;;4995405;28;20855;-80
2021/10/03 06:27:01;;;;;;;8.50;7.60;;;;;;;;;;4994150;28;20456;-78
2021/10/03 06:29:28;;;;;;;11.07;8.60;;;;;;;;;;4994039;28;20662;-75
2021/10/03 06:31:57;;;;;;;8.53;7.27;;;;;;;;;;4994792;28;20481;-77
2021/10/03 06:34:24;;;;;;;10.73;8.00;;;;;;;;;;4994210;28;20448;-78
2021/10/03 06:36:51;;;;;;;11.17;8.53;;;;;;;;;;4994847;28;20452;-76
2021/10/03 06:39:18;;;;;;;15.83;7.73;;;;;;;;;;4994826;28;20453;-77
2021/10/03 06:41:46;;;;;;;8.67;7.67;;;;;;;;;;4994581;28;20441;-77
2021/10/03 06:44:14;;;;;;;8.30;7.60;;;;;;;;;;4994247;28;20445;-77
2021/10/03 06:46:41;;;;;;;8.83;7.47;;;;;;;;;;4994878;28;20630;-78
2021/10/03 06:49:09;;;;;;;10.50;8.63;;;;;;;;;;4994966;28;20455;-78
2021/10/03 06:51:37;;;;;;;8.13;7.33;;;;;;;;;;4994723;28;20466;-78
2021/10/03 06:54:04;;;;;;;8.93;6.70;;;;;;;;;;4994547;28;20452;-77
2021/10/03 06:56:31;;;;;;;11.83;8.50;;;;;;;;;;4994887;28;20449;-77
2021/10/03 06:58:59;;;;;;;8.37;7.47;;;;;;;;;;4994912;28;20468;-77
2021/10/03 07:01:26;;;;;;;8.37;7.50;;;;;;;;;;4994797;28;20440;-78
2021/10/03 07:03:53;;;;;;;9.20;7.53;;;;;;;;;;4994710;28;20451;-77
2021/10/03 07:06:22;;;;;;;8.33;7.50;;;;;;;;;;4994372;28;20437;-79
2021/10/03 07:08:49;;;;;;;10.50;8.37;;;;;;;;;;4994773;28;20804;-78
2021/10/03 07:11:16;;;;;;;8.77;7.97;;;;;;;;;;4995103;28;20438;-78
2021/10/03 07:13:44;;;;;;;9.37;8.47;;;;;;;;;;4994222;28;20491;-77
2021/10/03 07:16:11;;;;;;;16.33;9.30;;;;;;;;;;4995197;28;20453;-77
2021/10/03 07:18:38;;;;;;;8.90;8.07;;;;;;;;;;4994479;28;20457;-78
2021/10/03 07:21:05;;;;;;;12.20;8.30;;;;;;;;;;4994485;28;20481;-78
2021/10/03 07:23:34;;;;;;;11.03;7.80;;;;;;;;;;4995043;28;20527;-77
2021/10/03 07:26:01;;;;;;;9.20;8.10;;;;;;;;;;4994473;28;20864;-77
2021/10/03 07:28:28;;;;;;;9.13;8.23;;;;;;;;;;4994701;28;20441;-76
2021/10/03 07:30:55;;;;;;;10.07;8.77;;;;;;;;;;4994029;28;20440;-77
2021/10/03 07:33:23;;;;;;;10.13;9.10;;;;;;;;;;4994236;28;20568;-76
2021/10/03 07:35:50;;;;;;;13.47;9.57;;;;;;;;;;4994147;28;20451;-76
2021/10/03 07:38:17;;;;;;;13.20;9.20;;;;;;;;;;4994379;28;20458;-76
2021/10/03 07:40:46;;;;;;;10.10;8.83;;;;;;;;;;4994124;28;20884;-76
2021/10/03 07:43:14;;;;;;;12.27;8.50;;;;;;;;;;4993891;28;20933;-77
2021/10/03 07:45:41;;;;;;;10.63;8.60;;;;;;;;;;4994102;28;20446;-76
2021/10/03 07:48:08;;;;;;;10.63;9.00;;;;;;;;;;4993849;28;20833;-76
2021/10/03 07:50:36;;;;;;;8.83;7.80;;;;;;;;;;4994263;28;20456;-76
2021/10/03 07:53:03;;;;;;;9.70;8.33;;;;;;;;;;4993653;28;20474;-76
2021/10/03 07:55:30;;;;;;;10.13;8.57;;;;;;;;;;4994392;28;20529;-77
2021/10/03 07:58:03;;;;;;;10.67;9.57;;;;;;;;;;4993932;28;20451;-76
2021/10/03 08:00:30;;;;;;;10.20;9.20;;;;;;;;;;4994701;28;20442;-76
2021/10/03 08:02:58;;;;;;;17.27;9.23;;;;;;;;;;4994228;28;20448;-76
2021/10/03 08:05:25;;;;;;;12.50;8.83;;;;;;;;;;4993915;28;20536;-76
2021/10/03 08:07:52;;;;;;;10.50;7.90;;;;;;;;;;4993932;28;20445;-77
2021/10/03 08:10:19;;;;;;;9.43;7.87;;;;;;;;;;4993880;28;20961;-76
2021/10/03 08:12:47;;;;;;;7.73;6.60;;;;;;;;;;4993832;28;20486;-76
2021/10/03 08:15:16;;;;;;;8.53;7.30;;;;;;;;;;4993471;28;20964;-76
2021/10/03 08:17:43;;;;;;;9.67;7.30;;;;;;;;;;4993784;28;20459;-77
2021/10/03 08:20:11;;;;;;;8.00;7.20;;;;;;;;;;4993423;28;20548;-77
2021/10/03 08:22:38;;;;;;;8.03;7.33;;;;;;;;;;4993500;28;20970;-78
2021/10/03 08:25:07;;;;;;;7.10;6.40;;;;;;;;;;4993678;28;20450;-80
2021/10/03 08:27:35;;;;;;;12.13;6.97;;;;;;;;;;4992724;28;20866;-77
2021/10/03 08:30:02;;;;;;;8.37;6.93;;;;;;;;;;4993097;28;20449;-78
2021/10/03 08:32:31;;;;;;;8.17;7.37;;;;;;;;;;4992897;28;20844;-78
2021/10/03 08:34:58;;;;;;;8.67;7.03;;;;;;;;;;4993288;28;20455;-77
2021/10/03 08:37:26;;;;;;;7.43;6.73;;;;;;;;;;4993356;28;20449;-78
2021/10/03 08:39:53;;;;;;;8.20;7.17;;;;;;;;;;4993046;28;20545;-77
2021/10/03 08:42:20;;;;;;;7.33;6.63;;;;;;;;;;4992542;28;20443;-79
2021/10/03 08:44:47;;;;;;;7.40;6.10;;;;;;;;;;4992573;28;20546;-78
2021/10/03 08:47:15;;;;;;;7.50;6.20;;;;;;;;;;4992969;28;20455;-79
2021/10/03 08:49:44;;;;;;;7.03;6.00;;;;;;;;;;4992884;28;21013;-77
2021/10/03 08:52:11;;;;;;;7.30;6.60;;;;;;;;;;4994127;28;20550;-77
2021/10/03 08:54:38;;;;;;;8.00;6.47;;;;;;;;;;4996513;28;20535;-78
2021/10/03 08:57:06;;;;;;;6.70;6.00;;;;;;;;;;4996841;28;20480;-78
2021/10/03 08:59:33;;;;;;;12.10;6.60;;;;;;;;;;4997555;28;20450;-79
2021/10/03 09:02:03;;;;;;;6.77;6.17;;;;;;;;;;4996723;28;20441;-78
2021/10/03 09:04:31;;;;;;;7.30;6.50;;;;;;;;;;4996998;28;20449;-77
2021/10/03 09:07:04;;;;;;;9.67;6.37;;;;;;;;;;4996642;28;20957;-78
2021/10/03 09:09:49;;;;;;;10.97;6.87;;;;;;;;;;4996518;28;20518;-77
2021/10/03 09:12:23;;;;;;;8.43;7.17;;;;;;;;;;4996553;28;20441;-79
2021/10/03 09:14:50;;;;;;;7.47;6.00;;;;;;;;;;4996291;28;20815;-78
2021/10/03 09:17:18;;;;;;;6.90;5.57;;;;;;;;;;4997261;28;20443;-78
2021/10/03 09:20:00;;;;;;;6.87;6.13;;;;;;;;;;4996689;28;20455;-77
2021/10/03 09:22:28;;;;;;;8.40;6.60;;;;;;;;;;4996104;28;20445;-78
2021/10/03 09:24:55;;;;;;;12.30;6.37;;;;;;;;;;4996376;28;20446;-78
2021/10/03 09:27:23;;;;;;;7.27;6.43;;;;;;;;;;4996375;28;20452;-78
2021/10/03 09:29:50;;;;;;;9.90;7.10;;;;;;;;;;4996240;28;20446;-77
2021/10/03 09:32:18;;;;;;;6.90;6.00;;;;;;;;;;4995640;28;20448;-76
2021/10/03 09:34:47;;;;;;;7.03;6.33;;;;;;;;;;4995758;28;20484;-78
2021/10/03 09:37:18;;;;;;;8.20;6.30;;;;;;;;;;4996426;28;20444;-77
2021/10/03 09:39:49;;;;;;;6.00;5.50;;;;;;;;;;4996389;28;20457;-77
2021/10/03 09:42:16;;;;;;;7.00;5.90;;;;;;;;;;4996373;28;20504;-77
2021/10/03 09:45:04;;;;;;;6.77;6.10;;;;;;;;;;4995984;28;20460;-78
2021/10/03 09:47:31;;;;;;;7.10;6.43;;;;;;;;;;4995982;28;20519;-77
2021/10/03 09:49:58;;;;;;;9.87;6.73;;;;;;;;;;4995922;28;20458;-76
2021/10/03 09:52:26;;;;;;;7.47;6.13;;;;;;;;;;4995287;28;20436;-77
2021/10/03 09:54:55;;;;;;;7.20;6.50;;;;;;;;;;4996004;28;20447;-77
2021/10/03 09:57:22;;;;;;;7.67;6.10;;;;;;;;;;4996205;28;20444;-77
2021/10/03 09:59:50;;;;;;;7.20;6.03;;;;;;;;;;4996544;28;20535;-77
2021/10/03 10:02:17;;;;;;;7.73;6.13;;;;;;;;;;4995646;28;20443;-77
2021/10/03 10:04:45;;;;;;;6.80;6.07;;;;;;;;;;4995171;28;20444;-77
2021/10/03 10:07:13;;;;;;;7.67;6.60;;;;;;;;;;4995529;28;20532;-78
2021/10/03 10:09:40;;;;;;;6.37;5.77;;;;;;;;;;4995380;28;20534;-77
2021/10/03 10:12:12;;;;;;;9.33;7.20;;;;;;;;;;4995278;28;20802;-76
2021/10/03 10:14:42;;;;;;;9.23;6.60;;;;;;;;;;4995385;28;20476;-76
2021/10/03 10:17:24;;;;;;;6.20;5.60;;;;;;;;;;4995343;28;20493;-80
2021/10/03 10:19:51;;;;;;;7.70;6.70;;;;;;;;;;4995155;28;20450;-78
2021/10/03 10:22:36;;;;;;;6.93;6.23;;;;;;;;;;4995561;28;20487;-77
2021/10/03 10:25:07;;;;;;;8.17;5.43;;;;;;;;;;4995438;28;20459;-77
2021/10/03 10:27:59;;;;;;;8.50;5.90;;;;;;;;;;4995333;28;20435;-77
2021/10/03 10:30:27;;;;;;;8.00;6.63;;;;;;;;;;4995479;28;20433;-78
2021/10/03 10:33:10;;;;;;;6.03;5.37;;;;;;;;;;4995278;28;20447;-77
2021/10/03 10:35:41;;;;;;;7.03;5.90;;;;;;;;;;4995495;28;20491;-77
2021/10/03 10:38:21;;;;;;;9.93;6.60;;;;;;;;;;4995753;28;20495;-78
2021/10/03 10:40:49;;;;;;;8.40;6.00;;;;;;;;;;4995683;28;20473;-77
2021/10/03 10:43:46;;;;;;;6.73;6.13;;;;;;;;;;4995717;28;20455;-77
2021/10/03 10:46:32;;;;;;;8.93;7.50;;;;;;;;;;4995137;28;20436;-77
2021/10/03 10:49:14;;;;;;;7.20;6.10;;;;;;;;;;4995082;28;20450;-76
2021/10/03 10:51:43;;;;;;;7.93;5.77;;;;;;;;;;4993915;28;20544;-77
2021/10/03 10:54:16;;;;;;;7.53;6.00;;;;;;;;;;4994928;28;20494;-76
2021/10/03 10:56:43;;;;;;;6.70;6.00;;;;;;;;;;4995139;28;20439;-77
2021/10/03 10:59:11;;;;;;;7.87;6.13;;;;;;;;;;4995194;28;20442;-78
2021/10/03 11:01:40;;;;;;;6.60;6.00;;;;;;;;;;4994645;28;20457;-77
2021/10/03 11:04:23;;;;;;;8.70;5.73;;;;;;;;;;4994869;28;20466;-77
2021/10/03 11:06:55;;;;;;;7.63;6.20;;;;;;;;;;4993088;28;20462;-77
2021/10/03 11:09:22;;;;;;;7.53;5.97;;;;;;;;;;4994773;28;20433;-78
2021/10/03 11:12:06;;;;;;;6.50;4.93;;;;;;;;;;4995096;28;20449;-78
2021/10/03 11:14:33;;;;;;;7.33;5.93;;;;;;;;;;4994311;28;20562;-77
2021/10/03 11:17:02;;;;;;;6.53;5.30;;;;;;;;;;4994255;28;20451;-77
2021/10/03 11:19:34;;;;;;;5.53;4.97;;;;;;;;;;4994284;28;20449;-78
2021/10/03 11:22:06;;;;;;;6.50;5.83;;;;;;;;;;4994763;28;20484;-77
2021/10/03 11:24:35;;;;;;;5.83;5.33;;;;;;;;;;4994421;28;20534;-76
2021/10/03 11:27:02;;;;;;;5.70;5.20;;;;;;;;;;4994493;28;20446;-78
2021/10/03 11:29:31;;;;;;;5.83;5.33;;;;;;;;;;4994478;28;20445;-78
2021/10/03 11:31:58;;;;;;;6.10;5.50;;;;;;;;;;4994786;28;20446;-77
2021/10/03 11:34:27;;;;;;;6.50;5.90;;;;;;;;;;4994023;28;20575;-77
2021/10/03 11:36:54;;;;;;;8.57;5.80;;;;;;;;;;4993442;28;20528;-78
2021/10/03 11:39:35;;;;;;;6.30;5.70;;;;;;;;;;4993997;28;20446;-77
2021/10/03 11:42:03;;;;;;;8.70;5.67;;;;;;;;;;4993846;28;20430;-77
2021/10/03 11:44:30;;;;;;;6.53;5.80;;;;;;;;;;4994295;28;20538;-76
2021/10/03 11:46:58;;;;;;;10.03;6.23;;;;;;;;;;4993919;28;20521;-75
2021/10/03 11:49:27;;;;;;;5.77;5.27;;;;;;;;;;4993549;28;20524;-75
2021/10/03 11:51:55;;;;;;;7.83;5.03;;;;;;;;;;4993565;28;20505;-76
2021/10/03 11:54:32;;;;;;;6.97;5.27;;;;;;;;;;4994135;28;20893;-78
2021/10/03 11:57:13;;;;;;;6.77;6.10;;;;;;;;;;4993722;28;20485;-77
2021/10/03 11:59:40;;;;;;;5.70;5.20;;;;;;;;;;4993738;28;20781;-76
2021/10/03 12:02:12;;;;;;;6.77;5.50;;;;;;;;;;4993426;28;20527;-76
2021/10/03 12:04:39;;;;;;;6.30;5.70;;;;;;;;;;4993379;28;20425;-76
2021/10/03 12:07:14;;;;;;;7.70;5.67;;;;;;;;;;4993114;28;20493;-73
2021/10/03 12:09:54;;;;;;;7.37;6.67;;;;;;;;;;4993035;28;20525;-76
2021/10/03 12:12:43;;;;;;;6.13;5.57;;;;;;;;;;4993445;28;20776;-77
2021/10/03 12:15:10;;;;;;;8.00;5.70;;;;;;;;;;4993867;28;20556;-77
2021/10/03 12:17:50;;;;;;;6.90;6.20;;;;;;;;;;4993779;28;20520;-75
2021/10/03 12:20:17;;;;;;;7.00;6.30;;;;;;;;;;4993827;28;20482;-77
2021/10/03 12:22:53;;;;;;;6.80;6.10;;;;;;;;;;4993197;28;20429;-77
2021/10/03 12:25:20;;;;;;;6.83;6.13;;;;;;;;;;4993234;28;20959;-78
2021/10/03 12:27:59;;;;;;;7.93;6.07;;;;;;;;;;4995453;28;20904;-77
2021/10/03 12:30:26;;;;;;;7.43;6.60;;;;;;;;;;4997480;28;20536;-77
2021/10/03 12:33:00;;;;;;;8.30;6.13;;;;;;;;;;4997400;28;20453;-77
2021/10/03 12:35:27;;;;;;;6.00;5.40;;;;;;;;;;4997418;28;20841;-77
2021/10/03 12:37:54;;;;;;;5.67;5.20;;;;;;;;;;4997138;28;20446;-79
2021/10/03 12:40:27;;;;;;;6.43;5.83;;;;;;;;;;4997154;28;20536;-76
2021/10/03 12:42:54;;;;;;;7.70;6.30;;;;;;;;;;4997177;28;20477;-77
2021/10/03 12:45:23;;;;;;;10.27;5.93;;;;;;;;;;4997263;28;20489;-77
2021/10/03 12:47:50;;;;;;;8.43;5.63;;;;;;;;;;4996871;28;20954;-75
2021/10/03 12:50:17;;;;;;;6.20;5.60;;;;;;;;;;4996759;28;20820;-77
2021/10/03 12:52:45;;;;;;;6.43;5.83;;;;;;;;;;4997084;28;20455;-76
2021/10/03 12:55:12;;;;;;;6.10;5.60;;;;;;;;;;4997214;28;20481;-76
2021/10/03 12:57:39;;;;;;;6.47;5.83;;;;;;;;;;4997075;28;20450;-76
2021/10/03 13:00:07;;;;;;;7.47;6.77;;;;;;;;;;4996976;28;20533;-77
2021/10/03 13:02:35;;;;;;;8.23;5.67;;;;;;;;;;4996443;28;20447;-76
2021/10/03 13:05:03;;;;;;;6.13;5.63;;;;;;;;;;4996213;28;20534;-76
2021/10/03 13:07:30;;;;;;;6.20;5.63;;;;;;;;;;4996322;28;20958;-80
2021/10/03 13:09:57;;;;;;;6.63;6.07;;;;;;;;;;4996425;28;20539;-84
2021/10/03 13:12:24;;;;;;;6.27;5.67;;;;;;;;;;4996798;28;20455;-82
2021/10/03 13:14:53;;;;;;;6.37;5.77;;;;;;;;;;4991403;28;20567;-82
2021/10/03 13:17:20;;;;;;;6.10;5.50;;;;;;;;;;4977077;28;20487;-82
2021/10/03 13:19:48;;;;;;;7.47;6.07;;;;;;;;;;4977256;28;20542;-84
2021/10/03 13:22:16;;;;;;;7.23;6.27;;;;;;;;;;4977237;28;20977;-83
2021/10/03 13:24:43;;;;;;;5.83;5.30;;;;;;;;;;4976336;28;20538;-80
2021/10/03 13:27:10;;;;;;;6.67;5.97;;;;;;;;;;4977038;28;20460;-83
2021/10/03 13:29:37;;;;;;;8.77;6.03;;;;;;;;;;4976599;28;20867;-84
2021/10/03 13:32:05;;;;;;;6.37;5.80;;;;;;;;;;4977300;28;20526;-84
2021/10/03 13:34:32;;;;;;;7.30;6.00;;;;;;;;;;4977226;28;20525;-82
2021/10/03 13:37:01;;;;;;;7.93;5.90;;;;;;;;;;4976511;28;20541;-83
2021/10/03 13:39:28;;;;;;;6.97;6.13;;;;;;;;;;4975728;28;20534;-82
2021/10/03 13:41:55;;;;;;;7.50;6.23;;;;;;;;;;4976874;28;20538;-82
2021/10/03 13:44:23;;;;;;;6.80;6.10;;;;;;;;;;4976828;28;20540;-80
2021/10/03 13:46:50;;;;;;;6.50;5.80;;;;;;;;;;4976750;28;20996;-78
2021/10/03 13:49:17;;;;;;;9.30;6.00;;;;;;;;;;4976354;28;20449;-80
2021/10/03 13:51:44;;;;;;;8.90;6.03;;;;;;;;;;4976698;28;20454;-79
2021/10/03 13:54:13;;;;;;;7.00;5.97;;;;;;;;;;4976310;28;20484;-80
2021/10/03 13:56:40;;;;;;;7.00;6.40;;;;;;;;;;4977081;28;20453;-81
2021/10/03 13:59:07;;;;;;;8.20;5.50;;;;;;;;;;4976664;28;20513;-80
2021/10/03 14:01:35;;;;;;;7.90;6.00;;;;;;;;;;4976140;28;20443;-80
2021/10/03 14:04:02;;;;;;;8.77;5.77;;;;;;;;;;4976290;28;20483;-81
2021/10/03 14:06:29;;;;;;;6.50;5.60;;;;;;;;;;4976012;28;20452;-81
2021/10/03 14:08:56;;;;;;;7.87;5.70;;;;;;;;;;4975606;28;20463;-80
2021/10/03 14:11:25;;;;;;;6.27;5.67;;;;;;;;;;4975979;28;20534;-80
2021/10/03 14:13:52;;;;;;;6.80;5.63;;;;;;;;;;4976429;28;20450;-80
2021/10/03 14:16:19;;;;;;;6.50;5.90;;;;;;;;;;4977118;28;20446;-79
2021/10/03 14:18:46;;;;;;;8.03;5.83;;;;;;;;;;4975966;28;20451;-80
2021/10/03 14:21:14;;;;;;;7.93;5.53;;;;;;;;;;4976441;28;20826;-80
2021/10/03 14:23:41;;;;;;;6.83;6.03;;;;;;;;;;4976218;28;20452;-79
2021/10/03 14:26:08;;;;;;;5.47;5.07;;;;;;;;;;4975957;28;20450;-82
2021/10/03 14:28:37;;;;;;;8.63;5.60;;;;;;;;;;4977927;28;20458;-81
2021/10/03 14:31:04;;;;;;;7.47;6.40;;;;;;;;;;4975281;28;20452;-82
2021/10/03 14:33:31;;;;;;;6.83;6.13;;;;;;;;;;4975236;28;20455;-83
2021/10/03 14:35:58;;;;;;;7.50;5.40;;;;;;;;;;4975266;28;20549;-84
2021/10/03 14:38:26;;;;;;;6.10;5.50;;;;;;;;;;4975679;28;21012;-82
2021/10/03 14:40:54;;;;;;;5.43;4.87;;;;;;;;;;4975832;28;20493;-83
2021/10/03 14:43:22;;;;;;;10.30;5.77;;;;;;;;;;4975787;28;20494;-83
2021/10/03 14:45:51;;;;;;;10.90;5.03;;;;;;;;;;4975739;28;20448;-83
2021/10/03 14:48:18;;;;;;;6.80;5.50;;;;;;;;;;4975801;28;20501;-85